sensor_id;sensor_type;location;lat;lon;timestamp;P1;durP1;ratioP1;P2;durP2;ratioP2
52838;SDS011;39219;53.678;9.856;2023-06-04T00:01:55;3.65;;;1.67;;
52838;SDS011;39219;53.678;9.856;2023-06-04T00:04:21;3.90;;;1.70;;
52838;SDS011;39219;53.678;9.856;2023-06-04T00:06:48;5.95;;;2.40;;
52838;SDS011;39219;53.678;9.856;2023-06-04T00:09:14;2.38;;;1.65;;
52838;SDS011;39219;53.678;9.856;2023-06-04T00:11:42;4.18;;;2.17;;
52838;SDS011;39219;53.678;9.856;2023-06-04T00:14:10;4.97;;;2.10;;
52838;SDS011;39219;53.678;9.856;2023-06-04T00:16:36;4.03;;;2.15;;
52838;SDS011;39219;53.678;9.856;2023-06-04T00:19:03;6.82;;;2.15;;
52838;SDS011;39219;53.678;9.856;2023-06-04T00:21:29;3.95;;;2.15;;
52838;SDS011;39219;53.678;9.856;2023-06-04T00:23:55;3.92;;;2.00;;
52838;SDS011;39219;53.678;9.856;2023-06-04T00:26:22;4.25;;;1.85;;
52838;SDS011;39219;53.678;9.856;2023-06-04T00:28:49;3.95;;;2.13;;
52838;SDS011;39219;53.678;9.856;2023-06-04T00:31:15;5.22;;;2.20;;
52838;SDS011;39219;53.678;9.856;2023-06-04T00:33:42;3.28;;;1.90;;
52838;SDS011;39219;53.678;9.856;2023-06-04T00:36:09;4.75;;;2.17;;
52838;SDS011;39219;53.678;9.856;2023-06-04T00:38:35;6.93;;;2.33;;
52838;SDS011;39219;53.678;9.856;2023-06-04T00:41:01;5.28;;;2.25;;
52838;SDS011;39219;53.678;9.856;2023-06-04T00:43:27;5.53;;;2.22;;
52838;SDS011;39219;53.678;9.856;2023-06-04T00:45:58;5.20;;;2.20;;
52838;SDS011;39219;53.678;9.856;2023-06-04T00:48:24;3.50;;;2.10;;
52838;SDS011;39219;53.678;9.856;2023-06-04T00:50:52;5.63;;;2.20;;
52838;SDS011;39219;53.678;9.856;2023-06-04T00:53:19;4.03;;;2.30;;
52838;SDS011;39219;53.678;9.856;2023-06-04T00:55:46;4.68;;;2.17;;
52838;SDS011;39219;53.678;9.856;2023-06-04T00:58:12;4.57;;;2.30;;
52838;SDS011;39219;53.678;9.856;2023-06-04T01:00:40;6.90;;;2.40;;
52838;SDS011;39219;53.678;9.856;2023-06-04T01:03:10;5.10;;;2.22;;
52838;SDS011;39219;53.678;9.856;2023-06-04T01:05:37;4.97;;;2.17;;
52838;SDS011;39219;53.678;9.856;2023-06-04T01:08:07;3.10;;;1.98;;
52838;SDS011;39219;53.678;9.856;2023-06-04T01:10:34;5.65;;;2.25;;
52838;SDS011;39219;53.678;9.856;2023-06-04T01:13:00;5.70;;;2.30;;
52838;SDS011;39219;53.678;9.856;2023-06-04T01:15:26;3.35;;;2.17;;
52838;SDS011;39219;53.678;9.856;2023-06-04T01:17:54;4.90;;;2.20;;
52838;SDS011;39219;53.678;9.856;2023-06-04T01:20:30;3.22;;;2.10;;
52838;SDS011;39219;53.678;9.856;2023-06-04T01:23:14;5.18;;;2.22;;
52838;SDS011;39219;53.678;9.856;2023-06-04T01:25:45;7.57;;;2.15;;
52838;SDS011;39219;53.678;9.856;2023-06-04T01:28:14;3.70;;;2.08;;
52838;SDS011;39219;53.678;9.856;2023-06-04T01:30:43;5.22;;;2.10;;
52838;SDS011;39219;53.678;9.856;2023-06-04T01:33:11;2.92;;;2.00;;
52838;SDS011;39219;53.678;9.856;2023-06-04T01:35:39;3.55;;;1.92;;
52838;SDS011;39219;53.678;9.856;2023-06-04T01:38:05;4.15;;;2.20;;
52838;SDS011;39219;53.678;9.856;2023-06-04T01:40:31;5.13;;;2.38;;
52838;SDS011;39219;53.678;9.856;2023-06-04T01:42:58;6.70;;;2.25;;
52838;SDS011;39219;53.678;9.856;2023-06-04T01:45:25;3.38;;;2.20;;
52838;SDS011;39219;53.678;9.856;2023-06-04T01:47:51;4.90;;;2.33;;
52838;SDS011;39219;53.678;9.856;2023-06-04T01:50:17;4.13;;;2.20;;
52838;SDS011;39219;53.678;9.856;2023-06-04T01:52:45;6.00;;;2.30;;
52838;SDS011;39219;53.678;9.856;2023-06-04T01:55:12;5.28;;;2.40;;
52838;SDS011;39219;53.678;9.856;2023-06-04T01:57:39;3.97;;;2.20;;
52838;SDS011;39219;53.678;9.856;2023-06-04T02:00:06;5.22;;;2.30;;
52838;SDS011;39219;53.678;9.856;2023-06-04T02:02:34;3.58;;;2.35;;
52838;SDS011;39219;53.678;9.856;2023-06-04T02:05:01;4.93;;;2.33;;
52838;SDS011;39219;53.678;9.856;2023-06-04T02:07:28;3.80;;;2.50;;
52838;SDS011;39219;53.678;9.856;2023-06-04T02:09:57;4.32;;;2.20;;
52838;SDS011;39219;53.678;9.856;2023-06-04T02:12:24;3.72;;;2.30;;
52838;SDS011;39219;53.678;9.856;2023-06-04T02:14:50;2.83;;;2.10;;
52838;SDS011;39219;53.678;9.856;2023-06-04T02:17:16;7.07;;;2.58;;
52838;SDS011;39219;53.678;9.856;2023-06-04T02:19:43;2.63;;;1.92;;
52838;SDS011;39219;53.678;9.856;2023-06-04T02:22:14;3.35;;;2.30;;
52838;SDS011;39219;53.678;9.856;2023-06-04T02:24:41;4.32;;;2.20;;
52838;SDS011;39219;53.678;9.856;2023-06-04T02:27:09;3.15;;;2.15;;
52838;SDS011;39219;53.678;9.856;2023-06-04T02:29:36;5.35;;;2.38;;
52838;SDS011;39219;53.678;9.856;2023-06-04T02:32:02;4.15;;;2.40;;
52838;SDS011;39219;53.678;9.856;2023-06-04T02:34:29;4.68;;;2.22;;
52838;SDS011;39219;53.678;9.856;2023-06-04T02:36:55;5.05;;;2.20;;
52838;SDS011;39219;53.678;9.856;2023-06-04T02:39:21;6.07;;;2.60;;
52838;SDS011;39219;53.678;9.856;2023-06-04T02:41:48;4.20;;;2.35;;
52838;SDS011;39219;53.678;9.856;2023-06-04T02:44:15;4.95;;;2.63;;
52838;SDS011;39219;53.678;9.856;2023-06-04T02:46:42;3.83;;;2.20;;
52838;SDS011;39219;53.678;9.856;2023-06-04T02:49:08;3.45;;;2.10;;
52838;SDS011;39219;53.678;9.856;2023-06-04T02:51:35;6.90;;;2.67;;
52838;SDS011;39219;53.678;9.856;2023-06-04T02:54:01;5.03;;;2.50;;
52838;SDS011;39219;53.678;9.856;2023-06-04T02:56:27;5.55;;;2.60;;
52838;SDS011;39219;53.678;9.856;2023-06-04T02:58:54;4.38;;;2.53;;
52838;SDS011;39219;53.678;9.856;2023-06-04T03:01:22;4.03;;;2.40;;
52838;SDS011;39219;53.678;9.856;2023-06-04T03:03:48;5.60;;;2.50;;
52838;SDS011;39219;53.678;9.856;2023-06-04T03:06:15;6.40;;;2.35;;
52838;SDS011;39219;53.678;9.856;2023-06-04T03:08:42;3.97;;;2.30;;
52838;SDS011;39219;53.678;9.856;2023-06-04T03:11:08;8.82;;;2.70;;
52838;SDS011;39219;53.678;9.856;2023-06-04T03:13:35;4.53;;;2.53;;
52838;SDS011;39219;53.678;9.856;2023-06-04T03:16:01;6.32;;;2.90;;
52838;SDS011;39219;53.678;9.856;2023-06-04T03:18:29;5.47;;;2.90;;
52838;SDS011;39219;53.678;9.856;2023-06-04T03:20:56;3.90;;;2.75;;
52838;SDS011;39219;53.678;9.856;2023-06-04T03:23:22;3.78;;;2.60;;
52838;SDS011;39219;53.678;9.856;2023-06-04T03:25:48;4.50;;;2.60;;
52838;SDS011;39219;53.678;9.856;2023-06-04T03:28:15;5.80;;;3.10;;
52838;SDS011;39219;53.678;9.856;2023-06-04T03:30:41;7.22;;;3.20;;
52838;SDS011;39219;53.678;9.856;2023-06-04T03:33:07;4.53;;;2.78;;
52838;SDS011;39219;53.678;9.856;2023-06-04T03:35:35;5.00;;;2.70;;
52838;SDS011;39219;53.678;9.856;2023-06-04T03:38:01;3.28;;;2.42;;
52838;SDS011;39219;53.678;9.856;2023-06-04T03:40:27;5.28;;;2.70;;
52838;SDS011;39219;53.678;9.856;2023-06-04T03:42:54;4.70;;;2.60;;
52838;SDS011;39219;53.678;9.856;2023-06-04T03:45:20;4.50;;;2.80;;
52838;SDS011;39219;53.678;9.856;2023-06-04T03:47:46;5.22;;;2.65;;
52838;SDS011;39219;53.678;9.856;2023-06-04T03:50:12;7.10;;;3.20;;
52838;SDS011;39219;53.678;9.856;2023-06-04T03:52:40;7.60;;;3.50;;
52838;SDS011;39219;53.678;9.856;2023-06-04T03:55:06;7.88;;;3.30;;
52838;SDS011;39219;53.678;9.856;2023-06-04T03:57:33;9.25;;;4.57;;
52838;SDS011;39219;53.678;9.856;2023-06-04T04:00:00;7.93;;;4.10;;
52838;SDS011;39219;53.678;9.856;2023-06-04T04:02:28;7.93;;;4.22;;
52838;SDS011;39219;53.678;9.856;2023-06-04T04:04:54;9.70;;;4.15;;
52838;SDS011;39219;53.678;9.856;2023-06-04T04:07:22;6.60;;;4.03;;
52838;SDS011;39219;53.678;9.856;2023-06-04T04:09:50;7.60;;;3.90;;
52838;SDS011;39219;53.678;9.856;2023-06-04T04:12:17;7.60;;;4.10;;
52838;SDS011;39219;53.678;9.856;2023-06-04T04:14:43;7.03;;;3.95;;
52838;SDS011;39219;53.678;9.856;2023-06-04T04:17:09;6.93;;;3.70;;
52838;SDS011;39219;53.678;9.856;2023-06-04T04:19:35;7.25;;;3.38;;
52838;SDS011;39219;53.678;9.856;2023-06-04T04:22:02;7.90;;;3.47;;
52838;SDS011;39219;53.678;9.856;2023-06-04T04:24:28;8.05;;;3.42;;
52838;SDS011;39219;53.678;9.856;2023-06-04T04:26:56;5.80;;;3.38;;
52838;SDS011;39219;53.678;9.856;2023-06-04T04:29:23;10.73;;;3.40;;
52838;SDS011;39219;53.678;9.856;2023-06-04T04:31:50;9.63;;;3.40;;
52838;SDS011;39219;53.678;9.856;2023-06-04T04:34:16;8.38;;;3.40;;
52838;SDS011;39219;53.678;9.856;2023-06-04T04:36:45;7.07;;;3.53;;
52838;SDS011;39219;53.678;9.856;2023-06-04T04:39:18;6.53;;;3.20;;
52838;SDS011;39219;53.678;9.856;2023-06-04T04:41:44;8.65;;;3.22;;
52838;SDS011;39219;53.678;9.856;2023-06-04T04:44:12;9.38;;;3.53;;
52838;SDS011;39219;53.678;9.856;2023-06-04T04:46:38;8.27;;;3.67;;
52838;SDS011;39219;53.678;9.856;2023-06-04T04:49:05;9.80;;;3.85;;
52838;SDS011;39219;53.678;9.856;2023-06-04T04:51:31;8.95;;;3.80;;
52838;SDS011;39219;53.678;9.856;2023-06-04T04:53:57;8.77;;;3.38;;
52838;SDS011;39219;53.678;9.856;2023-06-04T04:56:25;9.05;;;3.60;;
52838;SDS011;39219;53.678;9.856;2023-06-04T04:58:51;7.95;;;3.80;;
52838;SDS011;39219;53.678;9.856;2023-06-04T05:01:19;8.25;;;3.72;;
52838;SDS011;39219;53.678;9.856;2023-06-04T05:03:45;9.18;;;3.75;;
52838;SDS011;39219;53.678;9.856;2023-06-04T05:06:12;8.18;;;3.38;;
52838;SDS011;39219;53.678;9.856;2023-06-04T05:08:38;10.38;;;3.42;;
52838;SDS011;39219;53.678;9.856;2023-06-04T05:11:04;8.15;;;3.20;;
52838;SDS011;39219;53.678;9.856;2023-06-04T05:13:31;8.65;;;3.08;;
52838;SDS011;39219;53.678;9.856;2023-06-04T05:15:57;6.93;;;2.90;;
52838;SDS011;39219;53.678;9.856;2023-06-04T05:18:26;8.27;;;3.22;;
52838;SDS011;39219;53.678;9.856;2023-06-04T05:20:54;7.88;;;3.45;;
52838;SDS011;39219;53.678;9.856;2023-06-04T05:23:20;7.97;;;3.20;;
52838;SDS011;39219;53.678;9.856;2023-06-04T05:25:47;7.95;;;2.83;;
52838;SDS011;39219;53.678;9.856;2023-06-04T05:28:14;7.95;;;3.00;;
52838;SDS011;39219;53.678;9.856;2023-06-04T05:30:40;6.53;;;3.10;;
52838;SDS011;39219;53.678;9.856;2023-06-04T05:33:06;6.68;;;2.88;;
52838;SDS011;39219;53.678;9.856;2023-06-04T05:35:44;6.18;;;2.85;;
52838;SDS011;39219;53.678;9.856;2023-06-04T05:38:10;7.57;;;3.20;;
52838;SDS011;39219;53.678;9.856;2023-06-04T05:40:40;8.05;;;3.30;;
52838;SDS011;39219;53.678;9.856;2023-06-04T05:43:06;6.20;;;2.60;;
52838;SDS011;39219;53.678;9.856;2023-06-04T05:45:33;7.32;;;2.78;;
52838;SDS011;39219;53.678;9.856;2023-06-04T05:47:59;7.53;;;2.58;;
52838;SDS011;39219;53.678;9.856;2023-06-04T05:50:26;5.45;;;2.72;;
52838;SDS011;39219;53.678;9.856;2023-06-04T05:52:53;7.32;;;2.88;;
52838;SDS011;39219;53.678;9.856;2023-06-04T05:55:19;5.35;;;2.67;;
52838;SDS011;39219;53.678;9.856;2023-06-04T05:57:46;6.68;;;2.60;;
52838;SDS011;39219;53.678;9.856;2023-06-04T06:00:12;5.63;;;2.40;;
52838;SDS011;39219;53.678;9.856;2023-06-04T06:02:39;5.53;;;2.42;;
52838;SDS011;39219;53.678;9.856;2023-06-04T06:05:05;7.53;;;2.63;;
52838;SDS011;39219;53.678;9.856;2023-06-04T06:07:33;39.10;;;4.18;;
52838;SDS011;39219;53.678;9.856;2023-06-04T06:10:00;5.65;;;2.55;;
52838;SDS011;39219;53.678;9.856;2023-06-04T06:12:27;6.15;;;2.45;;
52838;SDS011;39219;53.678;9.856;2023-06-04T06:14:54;6.38;;;2.50;;
52838;SDS011;39219;53.678;9.856;2023-06-04T06:17:20;7.32;;;2.63;;
52838;SDS011;39219;53.678;9.856;2023-06-04T06:19:46;6.30;;;2.28;;
52838;SDS011;39219;53.678;9.856;2023-06-04T06:22:13;5.03;;;2.42;;
52838;SDS011;39219;53.678;9.856;2023-06-04T06:24:39;7.55;;;2.80;;
52838;SDS011;39219;53.678;9.856;2023-06-04T06:27:07;8.05;;;2.40;;
52838;SDS011;39219;53.678;9.856;2023-06-04T06:29:33;6.78;;;2.45;;
52838;SDS011;39219;53.678;9.856;2023-06-04T06:31:59;5.30;;;2.28;;
52838;SDS011;39219;53.678;9.856;2023-06-04T06:34:26;5.95;;;2.50;;
52838;SDS011;39219;53.678;9.856;2023-06-04T06:36:52;6.00;;;2.35;;
52838;SDS011;39219;53.678;9.856;2023-06-04T06:39:18;5.93;;;2.30;;
52838;SDS011;39219;53.678;9.856;2023-06-04T06:41:45;5.13;;;2.22;;
52838;SDS011;39219;53.678;9.856;2023-06-04T06:44:13;5.90;;;2.25;;
52838;SDS011;39219;53.678;9.856;2023-06-04T06:46:39;4.43;;;2.20;;
52838;SDS011;39219;53.678;9.856;2023-06-04T06:49:05;4.97;;;2.22;;
52838;SDS011;39219;53.678;9.856;2023-06-04T06:51:31;5.32;;;2.33;;
52838;SDS011;39219;53.678;9.856;2023-06-04T06:53:58;6.68;;;2.35;;
52838;SDS011;39219;53.678;9.856;2023-06-04T06:56:24;6.47;;;2.13;;
52838;SDS011;39219;53.678;9.856;2023-06-04T06:58:51;5.65;;;2.03;;
52838;SDS011;39219;53.678;9.856;2023-06-04T07:01:18;5.35;;;2.28;;
52838;SDS011;39219;53.678;9.856;2023-06-04T07:03:46;5.25;;;2.40;;
52838;SDS011;39219;53.678;9.856;2023-06-04T07:06:12;3.95;;;1.80;;
52838;SDS011;39219;53.678;9.856;2023-06-04T07:08:38;5.35;;;1.92;;
52838;SDS011;39219;53.678;9.856;2023-06-04T07:11:05;4.85;;;2.10;;
52838;SDS011;39219;53.678;9.856;2023-06-04T07:13:32;5.97;;;2.10;;
52838;SDS011;39219;53.678;9.856;2023-06-04T07:16:00;6.38;;;2.28;;
52838;SDS011;39219;53.678;9.856;2023-06-04T07:18:28;6.00;;;2.17;;
52838;SDS011;39219;53.678;9.856;2023-06-04T07:20:54;5.65;;;2.17;;
52838;SDS011;39219;53.678;9.856;2023-06-04T07:23:20;3.15;;;1.83;;
52838;SDS011;39219;53.678;9.856;2023-06-04T07:25:47;5.20;;;2.05;;
52838;SDS011;39219;53.678;9.856;2023-06-04T07:28:13;5.55;;;1.90;;
52838;SDS011;39219;53.678;9.856;2023-06-04T07:30:40;4.05;;;1.70;;
52838;SDS011;39219;53.678;9.856;2023-06-04T07:33:06;5.32;;;2.08;;
52838;SDS011;39219;53.678;9.856;2023-06-04T07:35:34;4.05;;;1.92;;
52838;SDS011;39219;53.678;9.856;2023-06-04T07:38:00;3.55;;;1.70;;
52838;SDS011;39219;53.678;9.856;2023-06-04T07:40:26;3.35;;;1.70;;
52838;SDS011;39219;53.678;9.856;2023-06-04T07:42:52;2.90;;;1.70;;
52838;SDS011;39219;53.678;9.856;2023-06-04T07:45:19;3.17;;;1.77;;
52838;SDS011;39219;53.678;9.856;2023-06-04T07:47:45;2.75;;;1.73;;
52838;SDS011;39219;53.678;9.856;2023-06-04T07:50:11;5.30;;;1.70;;
52838;SDS011;39219;53.678;9.856;2023-06-04T07:52:39;3.13;;;1.75;;
52838;SDS011;39219;53.678;9.856;2023-06-04T07:55:05;3.40;;;1.35;;
52838;SDS011;39219;53.678;9.856;2023-06-04T07:57:33;4.18;;;1.67;;
52838;SDS011;39219;53.678;9.856;2023-06-04T08:00:00;3.10;;;1.45;;
52838;SDS011;39219;53.678;9.856;2023-06-04T08:02:29;5.78;;;1.60;;
52838;SDS011;39219;53.678;9.856;2023-06-04T08:04:55;5.85;;;1.75;;
52838;SDS011;39219;53.678;9.856;2023-06-04T08:07:21;4.97;;;1.63;;
52838;SDS011;39219;53.678;9.856;2023-06-04T08:09:49;3.45;;;1.42;;
52838;SDS011;39219;53.678;9.856;2023-06-04T08:12:15;3.78;;;1.83;;
52838;SDS011;39219;53.678;9.856;2023-06-04T08:14:42;3.10;;;1.52;;
52838;SDS011;39219;53.678;9.856;2023-06-04T08:17:08;3.20;;;1.90;;
52838;SDS011;39219;53.678;9.856;2023-06-04T08:19:34;3.58;;;1.85;;
52838;SDS011;39219;53.678;9.856;2023-06-04T08:22:00;5.15;;;2.05;;
52838;SDS011;39219;53.678;9.856;2023-06-04T08:24:27;4.50;;;1.83;;
52838;SDS011;39219;53.678;9.856;2023-06-04T08:26:54;3.63;;;1.80;;
52838;SDS011;39219;53.678;9.856;2023-06-04T08:29:21;4.90;;;1.90;;
52838;SDS011;39219;53.678;9.856;2023-06-04T08:31:47;4.47;;;1.50;;
52838;SDS011;39219;53.678;9.856;2023-06-04T08:34:13;3.80;;;1.52;;
52838;SDS011;39219;53.678;9.856;2023-06-04T08:36:40;4.45;;;1.70;;
52838;SDS011;39219;53.678;9.856;2023-06-04T08:39:06;3.38;;;1.67;;
52838;SDS011;39219;53.678;9.856;2023-06-04T08:41:34;4.03;;;1.48;;
52838;SDS011;39219;53.678;9.856;2023-06-04T08:44:05;2.38;;;1.60;;
52838;SDS011;39219;53.678;9.856;2023-06-04T08:46:32;3.22;;;1.60;;
52838;SDS011;39219;53.678;9.856;2023-06-04T08:48:59;3.38;;;1.60;;
52838;SDS011;39219;53.678;9.856;2023-06-04T08:51:26;5.00;;;1.70;;
52838;SDS011;39219;53.678;9.856;2023-06-04T08:53:52;4.13;;;1.55;;
52838;SDS011;39219;53.678;9.856;2023-06-04T08:56:20;5.28;;;1.77;;
52838;SDS011;39219;53.678;9.856;2023-06-04T08:58:47;5.22;;;1.80;;
52838;SDS011;39219;53.678;9.856;2023-06-04T09:01:15;6.40;;;1.98;;
52838;SDS011;39219;53.678;9.856;2023-06-04T09:03:41;4.53;;;1.98;;
52838;SDS011;39219;53.678;9.856;2023-06-04T09:06:07;4.50;;;1.83;;
52838;SDS011;39219;53.678;9.856;2023-06-04T09:08:35;4.60;;;1.80;;
52838;SDS011;39219;53.678;9.856;2023-06-04T09:11:03;3.28;;;1.83;;
52838;SDS011;39219;53.678;9.856;2023-06-04T09:13:31;3.50;;;1.38;;
52838;SDS011;39219;53.678;9.856;2023-06-04T09:16:00;4.07;;;1.90;;
52838;SDS011;39219;53.678;9.856;2023-06-04T09:18:28;3.85;;;1.67;;
52838;SDS011;39219;53.678;9.856;2023-06-04T09:21:04;4.85;;;1.55;;
52838;SDS011;39219;53.678;9.856;2023-06-04T09:23:31;3.58;;;1.52;;
52838;SDS011;39219;53.678;9.856;2023-06-04T09:26:05;3.95;;;1.52;;
52838;SDS011;39219;53.678;9.856;2023-06-04T09:28:31;4.38;;;2.00;;
52838;SDS011;39219;53.678;9.856;2023-06-04T09:30:58;6.30;;;1.92;;
52838;SDS011;39219;53.678;9.856;2023-06-04T09:33:24;2.45;;;1.73;;
52838;SDS011;39219;53.678;9.856;2023-06-04T09:35:55;2.47;;;1.70;;
52838;SDS011;39219;53.678;9.856;2023-06-04T09:38:22;4.35;;;1.60;;
52838;SDS011;39219;53.678;9.856;2023-06-04T09:40:48;3.88;;;1.45;;
52838;SDS011;39219;53.678;9.856;2023-06-04T09:43:20;4.78;;;1.90;;
52838;SDS011;39219;53.678;9.856;2023-06-04T09:45:47;5.68;;;1.60;;
52838;SDS011;39219;53.678;9.856;2023-06-04T09:48:19;3.97;;;1.80;;
52838;SDS011;39219;53.678;9.856;2023-06-04T09:50:45;4.80;;;1.65;;
52838;SDS011;39219;53.678;9.856;2023-06-04T09:53:17;2.63;;;1.35;;
52838;SDS011;39219;53.678;9.856;2023-06-04T09:55:55;2.75;;;1.55;;
52838;SDS011;39219;53.678;9.856;2023-06-04T09:58:22;2.53;;;1.77;;
52838;SDS011;39219;53.678;9.856;2023-06-04T10:00:49;4.63;;;1.67;;
52838;SDS011;39219;53.678;9.856;2023-06-04T10:03:15;2.75;;;1.55;;
52838;SDS011;39219;53.678;9.856;2023-06-04T10:05:44;3.15;;;1.58;;
52838;SDS011;39219;53.678;9.856;2023-06-04T10:08:11;4.15;;;1.60;;
52838;SDS011;39219;53.678;9.856;2023-06-04T10:10:40;4.93;;;1.48;;
52838;SDS011;39219;53.678;9.856;2023-06-04T10:13:09;4.60;;;1.88;;
52838;SDS011;39219;53.678;9.856;2023-06-04T10:15:40;3.08;;;1.60;;
52838;SDS011;39219;53.678;9.856;2023-06-04T10:18:07;4.53;;;2.28;;
52838;SDS011;39219;53.678;9.856;2023-06-04T10:20:35;3.40;;;1.83;;
52838;SDS011;39219;53.678;9.856;2023-06-04T10:23:02;2.35;;;1.33;;
52838;SDS011;39219;53.678;9.856;2023-06-04T10:25:29;3.60;;;1.80;;
52838;SDS011;39219;53.678;9.856;2023-06-04T10:27:57;2.25;;;1.70;;
52838;SDS011;39219;53.678;9.856;2023-06-04T10:30:24;3.92;;;1.40;;
52838;SDS011;39219;53.678;9.856;2023-06-04T10:32:50;2.53;;;1.60;;
52838;SDS011;39219;53.678;9.856;2023-06-04T10:35:16;3.55;;;1.85;;
52838;SDS011;39219;53.678;9.856;2023-06-04T10:37:43;3.47;;;1.58;;
52838;SDS011;39219;53.678;9.856;2023-06-04T10:40:10;2.85;;;1.70;;
52838;SDS011;39219;53.678;9.856;2023-06-04T10:42:37;3.60;;;1.65;;
52838;SDS011;39219;53.678;9.856;2023-06-04T10:45:05;3.90;;;1.73;;
52838;SDS011;39219;53.678;9.856;2023-06-04T10:47:33;4.85;;;1.85;;
52838;SDS011;39219;53.678;9.856;2023-06-04T10:50:08;4.55;;;1.75;;
52838;SDS011;39219;53.678;9.856;2023-06-04T10:52:35;5.63;;;1.80;;
52838;SDS011;39219;53.678;9.856;2023-06-04T10:55:03;3.67;;;1.80;;
52838;SDS011;39219;53.678;9.856;2023-06-04T10:57:29;3.22;;;1.73;;
52838;SDS011;39219;53.678;9.856;2023-06-04T10:59:56;3.50;;;1.50;;
52838;SDS011;39219;53.678;9.856;2023-06-04T11:02:25;4.18;;;1.50;;
52838;SDS011;39219;53.678;9.856;2023-06-04T11:04:58;3.25;;;1.73;;
52838;SDS011;39219;53.678;9.856;2023-06-04T11:09:52;3.28;;;1.40;;
52838;SDS011;39219;53.678;9.856;2023-06-04T11:12:19;7.13;;;1.70;;
52838;SDS011;39219;53.678;9.856;2023-06-04T11:14:53;4.47;;;1.35;;
52838;SDS011;39219;53.678;9.856;2023-06-04T11:17:19;3.45;;;1.70;;
52838;SDS011;39219;53.678;9.856;2023-06-04T11:19:47;3.03;;;1.45;;
52838;SDS011;39219;53.678;9.856;2023-06-04T11:22:13;2.10;;;1.45;;
52838;SDS011;39219;53.678;9.856;2023-06-04T11:24:40;2.53;;;1.45;;
52838;SDS011;39219;53.678;9.856;2023-06-04T11:27:06;3.33;;;1.30;;
52838;SDS011;39219;53.678;9.856;2023-06-04T11:29:32;2.85;;;1.42;;
52838;SDS011;39219;53.678;9.856;2023-06-04T11:31:59;4.93;;;1.23;;
52838;SDS011;39219;53.678;9.856;2023-06-04T11:34:25;2.53;;;1.45;;
52838;SDS011;39219;53.678;9.856;2023-06-04T11:36:53;2.95;;;1.45;;
52838;SDS011;39219;53.678;9.856;2023-06-04T11:39:20;2.40;;;1.30;;
52838;SDS011;39219;53.678;9.856;2023-06-04T11:41:46;1.48;;;1.25;;
52838;SDS011;39219;53.678;9.856;2023-06-04T11:44:12;2.22;;;1.45;;
52838;SDS011;39219;53.678;9.856;2023-06-04T11:46:39;2.15;;;1.10;;
52838;SDS011;39219;53.678;9.856;2023-06-04T11:49:06;3.17;;;1.40;;
52838;SDS011;39219;53.678;9.856;2023-06-04T11:51:32;3.08;;;1.33;;
52838;SDS011;39219;53.678;9.856;2023-06-04T11:54:00;3.25;;;1.50;;
52838;SDS011;39219;53.678;9.856;2023-06-04T11:56:27;2.00;;;1.00;;
52838;SDS011;39219;53.678;9.856;2023-06-04T11:58:53;2.30;;;1.52;;
52838;SDS011;39219;53.678;9.856;2023-06-04T12:01:20;3.63;;;1.20;;
52838;SDS011;39219;53.678;9.856;2023-06-04T12:03:47;2.10;;;1.40;;
52838;SDS011;39219;53.678;9.856;2023-06-04T12:06:14;3.55;;;1.17;;
52838;SDS011;39219;53.678;9.856;2023-06-04T12:08:48;5.72;;;1.55;;
52838;SDS011;39219;53.678;9.856;2023-06-04T12:11:28;2.80;;;1.52;;
52838;SDS011;39219;53.678;9.856;2023-06-04T12:13:56;3.40;;;1.23;;
52838;SDS011;39219;53.678;9.856;2023-06-04T12:16:23;2.25;;;1.30;;
52838;SDS011;39219;53.678;9.856;2023-06-04T12:18:49;2.53;;;1.20;;
52838;SDS011;39219;53.678;9.856;2023-06-04T12:21:24;3.92;;;1.63;;
52838;SDS011;39219;53.678;9.856;2023-06-04T12:23:53;3.67;;;1.33;;
52838;SDS011;39219;53.678;9.856;2023-06-04T12:26:20;3.85;;;1.52;;
52838;SDS011;39219;53.678;9.856;2023-06-04T12:28:59;3.63;;;1.55;;
52838;SDS011;39219;53.678;9.856;2023-06-04T12:31:25;3.13;;;1.27;;
52838;SDS011;39219;53.678;9.856;2023-06-04T12:33:56;3.35;;;1.60;;
52838;SDS011;39219;53.678;9.856;2023-06-04T12:36:23;4.65;;;1.80;;
52838;SDS011;39219;53.678;9.856;2023-06-04T12:38:49;2.13;;;1.42;;
52838;SDS011;39219;53.678;9.856;2023-06-04T12:41:15;3.88;;;1.50;;
52838;SDS011;39219;53.678;9.856;2023-06-04T12:43:41;2.75;;;1.70;;
52838;SDS011;39219;53.678;9.856;2023-06-04T12:46:09;3.25;;;1.65;;
52838;SDS011;39219;53.678;9.856;2023-06-04T12:48:35;2.58;;;1.42;;
52838;SDS011;39219;53.678;9.856;2023-06-04T12:51:02;3.85;;;1.60;;
52838;SDS011;39219;53.678;9.856;2023-06-04T12:53:28;5.25;;;2.15;;
52838;SDS011;39219;53.678;9.856;2023-06-04T12:55:54;2.78;;;1.98;;
52838;SDS011;39219;53.678;9.856;2023-06-04T12:58:20;3.22;;;1.80;;
52838;SDS011;39219;53.678;9.856;2023-06-04T13:00:47;4.40;;;1.83;;
52838;SDS011;39219;53.678;9.856;2023-06-04T13:03:14;4.95;;;1.83;;
52838;SDS011;39219;53.678;9.856;2023-06-04T13:05:41;3.17;;;1.85;;
52838;SDS011;39219;53.678;9.856;2023-06-04T13:08:07;3.97;;;1.98;;
52838;SDS011;39219;53.678;9.856;2023-06-04T13:10:34;4.47;;;2.22;;
52838;SDS011;39219;53.678;9.856;2023-06-04T13:13:00;3.95;;;1.73;;
52838;SDS011;39219;53.678;9.856;2023-06-04T13:15:26;4.10;;;1.90;;
52838;SDS011;39219;53.678;9.856;2023-06-04T13:17:54;4.28;;;1.90;;
52838;SDS011;39219;53.678;9.856;2023-06-04T13:20:22;3.20;;;1.80;;
52838;SDS011;39219;53.678;9.856;2023-06-04T13:22:48;3.53;;;1.70;;
52838;SDS011;39219;53.678;9.856;2023-06-04T13:25:14;4.25;;;1.83;;
52838;SDS011;39219;53.678;9.856;2023-06-04T13:27:41;3.47;;;1.90;;
52838;SDS011;39219;53.678;9.856;2023-06-04T13:30:07;2.65;;;1.65;;
52838;SDS011;39219;53.678;9.856;2023-06-04T13:32:33;2.97;;;1.73;;
52838;SDS011;39219;53.678;9.856;2023-06-04T13:35:00;4.43;;;1.67;;
52838;SDS011;39219;53.678;9.856;2023-06-04T13:37:27;3.45;;;1.55;;
52838;SDS011;39219;53.678;9.856;2023-06-04T13:39:54;2.97;;;1.73;;
52838;SDS011;39219;53.678;9.856;2023-06-04T13:42:20;4.95;;;2.10;;
52838;SDS011;39219;53.678;9.856;2023-06-04T13:44:46;3.45;;;1.73;;
52838;SDS011;39219;53.678;9.856;2023-06-04T13:47:13;2.45;;;1.40;;
52838;SDS011;39219;53.678;9.856;2023-06-04T13:49:39;2.53;;;1.60;;
52838;SDS011;39219;53.678;9.856;2023-06-04T13:52:05;3.80;;;1.80;;
52838;SDS011;39219;53.678;9.856;2023-06-04T13:54:33;4.32;;;1.70;;
52838;SDS011;39219;53.678;9.856;2023-06-04T13:57:01;3.97;;;1.42;;
52838;SDS011;39219;53.678;9.856;2023-06-04T13:59:27;3.55;;;1.40;;
52838;SDS011;39219;53.678;9.856;2023-06-04T14:01:55;3.25;;;1.70;;
52838;SDS011;39219;53.678;9.856;2023-06-04T14:04:21;4.18;;;1.63;;
52838;SDS011;39219;53.678;9.856;2023-06-04T14:06:47;6.32;;;1.90;;
52838;SDS011;39219;53.678;9.856;2023-06-04T14:09:14;3.60;;;2.25;;
52838;SDS011;39219;53.678;9.856;2023-06-04T14:11:41;3.72;;;1.70;;
52838;SDS011;39219;53.678;9.856;2023-06-04T14:14:08;2.92;;;1.55;;
52838;SDS011;39219;53.678;9.856;2023-06-04T14:16:35;4.88;;;1.63;;
52838;SDS011;39219;53.678;9.856;2023-06-04T14:19:01;3.60;;;2.10;;
52838;SDS011;39219;53.678;9.856;2023-06-04T14:21:27;3.42;;;1.80;;
52838;SDS011;39219;53.678;9.856;2023-06-04T14:23:53;2.97;;;1.70;;
52838;SDS011;39219;53.678;9.856;2023-06-04T14:26:20;7.55;;;3.40;;
52838;SDS011;39219;53.678;9.856;2023-06-04T14:28:48;3.10;;;1.95;;
52838;SDS011;39219;53.678;9.856;2023-06-04T14:31:15;4.07;;;1.92;;
52838;SDS011;39219;53.678;9.856;2023-06-04T14:33:41;4.25;;;1.98;;
52838;SDS011;39219;53.678;9.856;2023-06-04T14:36:07;6.03;;;2.10;;
52838;SDS011;39219;53.678;9.856;2023-06-04T14:38:34;4.63;;;2.10;;
52838;SDS011;39219;53.678;9.856;2023-06-04T14:41:00;4.22;;;2.10;;
52838;SDS011;39219;53.678;9.856;2023-06-04T14:43:26;3.45;;;2.00;;
52838;SDS011;39219;53.678;9.856;2023-06-04T14:45:54;4.65;;;2.00;;
52838;SDS011;39219;53.678;9.856;2023-06-04T14:48:20;3.50;;;2.00;;
52838;SDS011;39219;53.678;9.856;2023-06-04T14:50:47;4.28;;;2.10;;